sensor_id;sensor_type;location;lat;lon;timestamp;P1;durP1;ratioP1;P2;durP2;ratioP2
9117;SDS011;4594;50.994;7.126;2023-07-29T00:00:26;1.23;;;1.20;;
9117;SDS011;4594;50.994;7.126;2023-07-29T00:02:53;1.17;;;1.17;;
9117;SDS011;4594;50.994;7.126;2023-07-29T00:05:18;1.57;;;1.47;;
9117;SDS011;4594;50.994;7.126;2023-07-29T00:07:44;1.20;;;1.20;;
9117;SDS011;4594;50.994;7.126;2023-07-29T00:10:09;7.33;;;1.30;;
9117;SDS011;4594;50.994;7.126;2023-07-29T00:12:35;1.17;;;1.17;;
9117;SDS011;4594;50.994;7.126;2023-07-29T00:15:01;1.00;;;1.00;;
9117;SDS011;4594;50.994;7.126;2023-07-29T00:17:26;1.20;;;1.20;;
9117;SDS011;4594;50.994;7.126;2023-07-29T00:19:52;1.20;;;1.13;;
9117;SDS011;4594;50.994;7.126;2023-07-29T00:22:18;2.60;;;1.20;;
9117;SDS011;4594;50.994;7.126;2023-07-29T00:24:43;1.00;;;1.00;;
9117;SDS011;4594;50.994;7.126;2023-07-29T00:27:09;1.20;;;1.20;;
9117;SDS011;4594;50.994;7.126;2023-07-29T00:29:35;1.20;;;1.20;;
9117;SDS011;4594;50.994;7.126;2023-07-29T00:32:00;1.20;;;1.20;;
9117;SDS011;4594;50.994;7.126;2023-07-29T00:34:26;1.40;;;1.30;;
9117;SDS011;4594;50.994;7.126;2023-07-29T00:36:52;1.40;;;1.40;;
9117;SDS011;4594;50.994;7.126;2023-07-29T00:39:17;1.17;;;1.17;;
9117;SDS011;4594;50.994;7.126;2023-07-29T00:41:44;1.00;;;1.00;;
9117;SDS011;4594;50.994;7.126;2023-07-29T00:44:09;1.00;;;1.00;;
9117;SDS011;4594;50.994;7.126;2023-07-29T00:46:35;2.20;;;1.27;;
9117;SDS011;4594;50.994;7.126;2023-07-29T00:49:04;3.13;;;1.40;;
9117;SDS011;4594;50.994;7.126;2023-07-29T00:51:30;1.10;;;1.10;;
9117;SDS011;4594;50.994;7.126;2023-07-29T00:53:55;1.40;;;1.30;;
9117;SDS011;4594;50.994;7.126;2023-07-29T00:56:21;1.07;;;1.07;;
9117;SDS011;4594;50.994;7.126;2023-07-29T00:58:47;1.20;;;1.20;;
9117;SDS011;4594;50.994;7.126;2023-07-29T01:01:13;1.20;;;1.20;;
9117;SDS011;4594;50.994;7.126;2023-07-29T01:03:39;1.00;;;1.00;;
9117;SDS011;4594;50.994;7.126;2023-07-29T01:08:51;1.23;;;1.17;;
9117;SDS011;4594;50.994;7.126;2023-07-29T01:11:30;1.27;;;1.27;;
9117;SDS011;4594;50.994;7.126;2023-07-29T01:17:10;1.20;;;1.17;;
9117;SDS011;4594;50.994;7.126;2023-07-29T01:20:00;3.00;;;1.30;;
9117;SDS011;4594;50.994;7.126;2023-07-29T01:22:37;1.30;;;1.30;;
9117;SDS011;4594;50.994;7.126;2023-07-29T01:25:04;2.50;;;1.30;;
9117;SDS011;4594;50.994;7.126;2023-07-29T01:27:31;1.13;;;1.10;;
9117;SDS011;4594;50.994;7.126;2023-07-29T01:29:57;2.10;;;1.53;;
9117;SDS011;4594;50.994;7.126;2023-07-29T01:35:03;1.40;;;1.37;;
9117;SDS011;4594;50.994;7.126;2023-07-29T01:37:40;1.20;;;1.20;;
9117;SDS011;4594;50.994;7.126;2023-07-29T01:40:09;1.30;;;1.30;;
9117;SDS011;4594;50.994;7.126;2023-07-29T01:42:36;1.17;;;1.17;;
9117;SDS011;4594;50.994;7.126;2023-07-29T01:45:02;1.20;;;1.20;;
9117;SDS011;4594;50.994;7.126;2023-07-29T01:47:30;1.40;;;1.30;;
9117;SDS011;4594;50.994;7.126;2023-07-29T01:49:55;1.63;;;1.53;;
9117;SDS011;4594;50.994;7.126;2023-07-29T01:52:21;2.97;;;1.30;;
9117;SDS011;4594;50.994;7.126;2023-07-29T01:54:47;1.40;;;1.40;;
9117;SDS011;4594;50.994;7.126;2023-07-29T01:57:13;1.43;;;1.33;;
9117;SDS011;4594;50.994;7.126;2023-07-29T01:59:39;1.40;;;1.40;;
9117;SDS011;4594;50.994;7.126;2023-07-29T02:02:05;1.40;;;1.40;;
9117;SDS011;4594;50.994;7.126;2023-07-29T02:04:31;1.33;;;1.33;;
9117;SDS011;4594;50.994;7.126;2023-07-29T02:06:56;3.87;;;1.40;;
9117;SDS011;4594;50.994;7.126;2023-07-29T02:09:22;1.90;;;1.60;;
9117;SDS011;4594;50.994;7.126;2023-07-29T02:11:48;8.00;;;2.30;;
9117;SDS011;4594;50.994;7.126;2023-07-29T02:14:13;1.70;;;1.60;;
9117;SDS011;4594;50.994;7.126;2023-07-29T02:16:39;1.70;;;1.60;;
9117;SDS011;4594;50.994;7.126;2023-07-29T02:19:04;2.70;;;1.53;;
9117;SDS011;4594;50.994;7.126;2023-07-29T02:21:30;14.93;;;2.73;;
9117;SDS011;4594;50.994;7.126;2023-07-29T02:23:56;2.87;;;2.30;;
9117;SDS011;4594;50.994;7.126;2023-07-29T02:26:22;1.50;;;1.50;;
9117;SDS011;4594;50.994;7.126;2023-07-29T02:28:47;1.50;;;1.40;;
9117;SDS011;4594;50.994;7.126;2023-07-29T02:31:17;1.87;;;1.60;;
9117;SDS011;4594;50.994;7.126;2023-07-29T02:33:47;2.80;;;1.70;;
9117;SDS011;4594;50.994;7.126;2023-07-29T02:36:13;1.50;;;1.50;;
9117;SDS011;4594;50.994;7.126;2023-07-29T02:38:42;1.70;;;1.40;;
9117;SDS011;4594;50.994;7.126;2023-07-29T02:41:09;1.37;;;1.37;;
9117;SDS011;4594;50.994;7.126;2023-07-29T02:43:37;1.47;;;1.47;;
9117;SDS011;4594;50.994;7.126;2023-07-29T02:46:03;1.80;;;1.70;;
9117;SDS011;4594;50.994;7.126;2023-07-29T02:48:28;1.70;;;1.60;;
9117;SDS011;4594;50.994;7.126;2023-07-29T02:50:55;1.47;;;1.40;;
9117;SDS011;4594;50.994;7.126;2023-07-29T02:53:21;1.63;;;1.50;;
9117;SDS011;4594;50.994;7.126;2023-07-29T02:55:48;1.60;;;1.60;;
9117;SDS011;4594;50.994;7.126;2023-07-29T02:58:14;1.70;;;1.60;;
9117;SDS011;4594;50.994;7.126;2023-07-29T03:00:40;1.50;;;1.50;;
9117;SDS011;4594;50.994;7.126;2023-07-29T03:03:07;1.37;;;1.37;;
9117;SDS011;4594;50.994;7.126;2023-07-29T03:05:33;1.50;;;1.50;;
9117;SDS011;4594;50.994;7.126;2023-07-29T03:07:59;2.50;;;1.60;;
9117;SDS011;4594;50.994;7.126;2023-07-29T03:10:25;1.70;;;1.53;;
9117;SDS011;4594;50.994;7.126;2023-07-29T03:12:53;2.07;;;1.83;;
9117;SDS011;4594;50.994;7.126;2023-07-29T03:15:22;1.30;;;1.30;;
9117;SDS011;4594;50.994;7.126;2023-07-29T03:17:52;1.63;;;1.53;;
9117;SDS011;4594;50.994;7.126;2023-07-29T03:20:18;1.83;;;1.80;;
9117;SDS011;4594;50.994;7.126;2023-07-29T03:22:45;2.30;;;1.60;;
9117;SDS011;4594;50.994;7.126;2023-07-29T03:25:11;1.97;;;1.87;;
9117;SDS011;4594;50.994;7.126;2023-07-29T03:27:38;1.50;;;1.50;;
9117;SDS011;4594;50.994;7.126;2023-07-29T03:30:05;1.57;;;1.57;;
9117;SDS011;4594;50.994;7.126;2023-07-29T03:32:32;2.07;;;1.97;;
9117;SDS011;4594;50.994;7.126;2023-07-29T03:34:58;2.00;;;1.90;;
9117;SDS011;4594;50.994;7.126;2023-07-29T03:37:24;1.80;;;1.80;;
9117;SDS011;4594;50.994;7.126;2023-07-29T03:39:49;1.60;;;1.50;;
9117;SDS011;4594;50.994;7.126;2023-07-29T03:42:17;2.00;;;1.70;;
9117;SDS011;4594;50.994;7.126;2023-07-29T03:44:43;1.80;;;1.80;;
9117;SDS011;4594;50.994;7.126;2023-07-29T03:47:08;1.70;;;1.70;;
9117;SDS011;4594;50.994;7.126;2023-07-29T03:49:34;2.00;;;1.90;;
9117;SDS011;4594;50.994;7.126;2023-07-29T03:52:00;2.00;;;2.00;;
9117;SDS011;4594;50.994;7.126;2023-07-29T03:54:26;1.87;;;1.87;;
9117;SDS011;4594;50.994;7.126;2023-07-29T03:56:51;2.30;;;2.07;;
9117;SDS011;4594;50.994;7.126;2023-07-29T03:59:17;2.23;;;2.13;;
9117;SDS011;4594;50.994;7.126;2023-07-29T04:01:43;2.13;;;2.00;;
9117;SDS011;4594;50.994;7.126;2023-07-29T04:04:08;1.60;;;1.60;;
9117;SDS011;4594;50.994;7.126;2023-07-29T04:06:34;1.90;;;1.80;;
9117;SDS011;4594;50.994;7.126;2023-07-29T04:09:00;1.93;;;1.87;;
9117;SDS011;4594;50.994;7.126;2023-07-29T04:11:26;2.13;;;1.90;;
9117;SDS011;4594;50.994;7.126;2023-07-29T04:13:51;1.80;;;1.70;;
9117;SDS011;4594;50.994;7.126;2023-07-29T04:16:17;1.90;;;1.87;;
9117;SDS011;4594;50.994;7.126;2023-07-29T04:18:43;3.17;;;1.70;;
9117;SDS011;4594;50.994;7.126;2023-07-29T04:21:08;1.60;;;1.60;;
9117;SDS011;4594;50.994;7.126;2023-07-29T04:23:34;3.03;;;1.73;;
9117;SDS011;4594;50.994;7.126;2023-07-29T04:26:00;1.57;;;1.50;;
9117;SDS011;4594;50.994;7.126;2023-07-29T04:28:26;1.67;;;1.60;;
9117;SDS011;4594;50.994;7.126;2023-07-29T04:30:51;1.70;;;1.70;;
9117;SDS011;4594;50.994;7.126;2023-07-29T04:33:17;2.10;;;1.90;;
9117;SDS011;4594;50.994;7.126;2023-07-29T04:35:43;1.63;;;1.60;;
9117;SDS011;4594;50.994;7.126;2023-07-29T04:38:09;1.80;;;1.70;;
9117;SDS011;4594;50.994;7.126;2023-07-29T04:40:34;1.80;;;1.70;;
9117;SDS011;4594;50.994;7.126;2023-07-29T04:43:00;2.20;;;2.03;;
9117;SDS011;4594;50.994;7.126;2023-07-29T04:45:29;1.60;;;1.50;;
9117;SDS011;4594;50.994;7.126;2023-07-29T04:47:56;5.63;;;1.80;;
9117;SDS011;4594;50.994;7.126;2023-07-29T04:50:23;1.57;;;1.57;;
9117;SDS011;4594;50.994;7.126;2023-07-29T04:52:48;1.83;;;1.73;;
9117;SDS011;4594;50.994;7.126;2023-07-29T04:55:14;1.47;;;1.47;;
9117;SDS011;4594;50.994;7.126;2023-07-29T04:57:40;1.43;;;1.33;;
9117;SDS011;4594;50.994;7.126;2023-07-29T05:00:06;1.53;;;1.50;;
9117;SDS011;4594;50.994;7.126;2023-07-29T05:02:32;1.90;;;1.70;;
9117;SDS011;4594;50.994;7.126;2023-07-29T05:04:58;1.60;;;1.60;;
9117;SDS011;4594;50.994;7.126;2023-07-29T05:07:23;1.73;;;1.63;;
9117;SDS011;4594;50.994;7.126;2023-07-29T05:09:49;3.97;;;1.80;;
9117;SDS011;4594;50.994;7.126;2023-07-29T05:12:15;1.80;;;1.63;;
9117;SDS011;4594;50.994;7.126;2023-07-29T05:14:40;1.87;;;1.77;;
9117;SDS011;4594;50.994;7.126;2023-07-29T05:17:06;6.10;;;1.80;;
9117;SDS011;4594;50.994;7.126;2023-07-29T05:19:32;1.53;;;1.53;;
9117;SDS011;4594;50.994;7.126;2023-07-29T05:21:57;1.63;;;1.57;;
9117;SDS011;4594;50.994;7.126;2023-07-29T05:24:23;2.27;;;2.17;;
9117;SDS011;4594;50.994;7.126;2023-07-29T05:26:49;2.40;;;2.03;;
9117;SDS011;4594;50.994;7.126;2023-07-29T05:29:15;2.70;;;2.50;;
9117;SDS011;4594;50.994;7.126;2023-07-29T05:31:40;3.07;;;2.57;;
9117;SDS011;4594;50.994;7.126;2023-07-29T05:34:06;2.47;;;2.27;;
9117;SDS011;4594;50.994;7.126;2023-07-29T05:36:32;2.70;;;2.00;;
9117;SDS011;4594;50.994;7.126;2023-07-29T05:38:58;2.27;;;2.07;;
9117;SDS011;4594;50.994;7.126;2023-07-29T05:41:23;2.40;;;2.20;;
9117;SDS011;4594;50.994;7.126;2023-07-29T05:43:51;3.97;;;2.20;;
9117;SDS011;4594;50.994;7.126;2023-07-29T05:46:16;2.97;;;2.03;;
9117;SDS011;4594;50.994;7.126;2023-07-29T05:48:42;3.70;;;2.33;;
9117;SDS011;4594;50.994;7.126;2023-07-29T05:51:07;4.30;;;2.30;;
9117;SDS011;4594;50.994;7.126;2023-07-29T05:53:33;2.50;;;2.40;;
9117;SDS011;4594;50.994;7.126;2023-07-29T05:55:59;2.43;;;2.30;;
9117;SDS011;4594;50.994;7.126;2023-07-29T05:58:25;2.60;;;2.40;;
9117;SDS011;4594;50.994;7.126;2023-07-29T06:00:50;3.03;;;2.33;;
9117;SDS011;4594;50.994;7.126;2023-07-29T06:03:16;2.60;;;2.40;;
9117;SDS011;4594;50.994;7.126;2023-07-29T06:05:42;2.60;;;2.40;;
9117;SDS011;4594;50.994;7.126;2023-07-29T06:08:07;2.43;;;2.30;;
9117;SDS011;4594;50.994;7.126;2023-07-29T06:10:34;2.77;;;2.57;;
9117;SDS011;4594;50.994;7.126;2023-07-29T06:12:59;2.50;;;2.40;;
9117;SDS011;4594;50.994;7.126;2023-07-29T06:15:25;2.60;;;2.40;;
9117;SDS011;4594;50.994;7.126;2023-07-29T06:17:51;3.73;;;2.53;;
9117;SDS011;4594;50.994;7.126;2023-07-29T06:20:16;2.73;;;2.57;;
9117;SDS011;4594;50.994;7.126;2023-07-29T06:22:42;2.60;;;2.50;;
9117;SDS011;4594;50.994;7.126;2023-07-29T06:25:08;2.60;;;2.40;;
9117;SDS011;4594;50.994;7.126;2023-07-29T06:27:33;2.40;;;2.30;;
9117;SDS011;4594;50.994;7.126;2023-07-29T06:29:59;2.50;;;2.30;;
9117;SDS011;4594;50.994;7.126;2023-07-29T06:32:25;2.70;;;2.23;;
9117;SDS011;4594;50.994;7.126;2023-07-29T06:34:51;4.07;;;2.37;;
9117;SDS011;4594;50.994;7.126;2023-07-29T06:37:19;2.23;;;2.13;;
9117;SDS011;4594;50.994;7.126;2023-07-29T06:39:45;2.27;;;2.17;;
9117;SDS011;4594;50.994;7.126;2023-07-29T06:42:11;2.17;;;2.07;;
9117;SDS011;4594;50.994;7.126;2023-07-29T06:44:36;2.27;;;1.90;;
9117;SDS011;4594;50.994;7.126;2023-07-29T06:47:02;2.47;;;1.90;;
9117;SDS011;4594;50.994;7.126;2023-07-29T06:49:28;1.83;;;1.73;;
9117;SDS011;4594;50.994;7.126;2023-07-29T06:51:54;2.90;;;1.67;;
9117;SDS011;4594;50.994;7.126;2023-07-29T06:54:23;2.33;;;1.83;;
9117;SDS011;4594;50.994;7.126;2023-07-29T06:56:51;1.97;;;1.87;;
9117;SDS011;4594;50.994;7.126;2023-07-29T06:59:17;1.67;;;1.57;;
9117;SDS011;4594;50.994;7.126;2023-07-29T07:01:43;2.17;;;1.90;;
9117;SDS011;4594;50.994;7.126;2023-07-29T07:04:09;1.90;;;1.77;;
9117;SDS011;4594;50.994;7.126;2023-07-29T07:06:34;1.70;;;1.60;;
9117;SDS011;4594;50.994;7.126;2023-07-29T07:09:00;1.80;;;1.70;;
9117;SDS011;4594;50.994;7.126;2023-07-29T07:11:25;2.07;;;1.80;;
9117;SDS011;4594;50.994;7.126;2023-07-29T07:13:51;4.63;;;1.60;;
9117;SDS011;4594;50.994;7.126;2023-07-29T07:16:17;5.60;;;1.80;;
9117;SDS011;4594;50.994;7.126;2023-07-29T07:18:43;2.37;;;1.63;;
9117;SDS011;4594;50.994;7.126;2023-07-29T07:21:08;1.87;;;1.83;;
9117;SDS011;4594;50.994;7.126;2023-07-29T07:23:34;5.37;;;1.80;;
9117;SDS011;4594;50.994;7.126;2023-07-29T07:26:00;1.80;;;1.70;;
9117;SDS011;4594;50.994;7.126;2023-07-29T07:28:25;1.80;;;1.50;;
9117;SDS011;4594;50.994;7.126;2023-07-29T07:30:51;1.70;;;1.60;;
9117;SDS011;4594;50.994;7.126;2023-07-29T07:33:17;1.67;;;1.60;;
9117;SDS011;4594;50.994;7.126;2023-07-29T07:35:43;3.30;;;1.60;;
9117;SDS011;4594;50.994;7.126;2023-07-29T07:38:08;1.40;;;1.40;;
9117;SDS011;4594;50.994;7.126;2023-07-29T07:40:35;1.50;;;1.40;;
9117;SDS011;4594;50.994;7.126;2023-07-29T07:43:01;1.20;;;1.20;;
9117;SDS011;4594;50.994;7.126;2023-07-29T07:45:27;2.57;;;1.40;;
9117;SDS011;4594;50.994;7.126;2023-07-29T07:47:53;2.10;;;1.30;;
9117;SDS011;4594;50.994;7.126;2023-07-29T07:50:18;3.53;;;1.40;;
9117;SDS011;4594;50.994;7.126;2023-07-29T07:52:45;1.43;;;1.13;;
9117;SDS011;4594;50.994;7.126;2023-07-29T07:55:11;5.13;;;1.50;;
9117;SDS011;4594;50.994;7.126;2023-07-29T07:57:36;1.70;;;1.60;;
9117;SDS011;4594;50.994;7.126;2023-07-29T08:00:02;1.43;;;1.37;;
9117;SDS011;4594;50.994;7.126;2023-07-29T08:02:29;1.50;;;1.50;;
9117;SDS011;4594;50.994;7.126;2023-07-29T08:04:55;1.60;;;1.50;;
9117;SDS011;4594;50.994;7.126;2023-07-29T08:07:21;1.67;;;1.57;;
9117;SDS011;4594;50.994;7.126;2023-07-29T08:09:46;1.60;;;1.60;;
9117;SDS011;4594;50.994;7.126;2023-07-29T08:12:12;1.70;;;1.57;;
9117;SDS011;4594;50.994;7.126;2023-07-29T08:14:38;1.53;;;1.43;;
9117;SDS011;4594;50.994;7.126;2023-07-29T08:17:03;1.67;;;1.57;;
9117;SDS011;4594;50.994;7.126;2023-07-29T08:19:29;1.77;;;1.70;;
9117;SDS011;4594;50.994;7.126;2023-07-29T08:21:55;1.40;;;1.30;;
9117;SDS011;4594;50.994;7.126;2023-07-29T08:24:21;1.47;;;1.37;;
9117;SDS011;4594;50.994;7.126;2023-07-29T08:26:46;1.60;;;1.50;;
9117;SDS011;4594;50.994;7.126;2023-07-29T08:29:12;1.20;;;1.20;;
9117;SDS011;4594;50.994;7.126;2023-07-29T08:31:38;1.40;;;1.30;;
9117;SDS011;4594;50.994;7.126;2023-07-29T08:34:04;4.77;;;1.60;;
9117;SDS011;4594;50.994;7.126;2023-07-29T08:36:29;2.20;;;1.33;;
9117;SDS011;4594;50.994;7.126;2023-07-29T08:38:55;2.03;;;1.30;;
9117;SDS011;4594;50.994;7.126;2023-07-29T08:44:40;1.77;;;1.67;;
9117;SDS011;4594;50.994;7.126;2023-07-29T08:47:08;1.57;;;1.47;;
9117;SDS011;4594;50.994;7.126;2023-07-29T08:49:34;1.70;;;1.27;;
9117;SDS011;4594;50.994;7.126;2023-07-29T08:52:02;1.60;;;1.50;;
9117;SDS011;4594;50.994;7.126;2023-07-29T08:54:29;1.57;;;1.40;;
9117;SDS011;4594;50.994;7.126;2023-07-29T08:56:55;3.43;;;1.30;;
9117;SDS011;4594;50.994;7.126;2023-07-29T08:59:21;1.40;;;1.30;;
9117;SDS011;4594;50.994;7.126;2023-07-29T09:01:47;1.37;;;1.37;;
9117;SDS011;4594;50.994;7.126;2023-07-29T09:04:13;1.40;;;1.40;;
9117;SDS011;4594;50.994;7.126;2023-07-29T09:06:39;1.90;;;1.47;;
9117;SDS011;4594;50.994;7.126;2023-07-29T09:09:08;1.10;;;1.10;;
9117;SDS011;4594;50.994;7.126;2023-07-29T09:11:34;1.47;;;1.27;;
9117;SDS011;4594;50.994;7.126;2023-07-29T09:14:00;1.13;;;1.13;;
9117;SDS011;4594;50.994;7.126;2023-07-29T09:16:26;1.17;;;1.17;;
9117;SDS011;4594;50.994;7.126;2023-07-29T09:18:52;1.70;;;1.00;;
9117;SDS011;4594;50.994;7.126;2023-07-29T09:21:22;1.23;;;1.23;;
9117;SDS011;4594;50.994;7.126;2023-07-29T09:23:53;2.00;;;1.30;;
9117;SDS011;4594;50.994;7.126;2023-07-29T09:26:24;1.50;;;1.40;;
9117;SDS011;4594;50.994;7.126;2023-07-29T09:28:52;1.30;;;1.30;;
9117;SDS011;4594;50.994;7.126;2023-07-29T09:31:21;5.10;;;1.40;;
9117;SDS011;4594;50.994;7.126;2023-07-29T09:33:48;2.73;;;1.10;;
9117;SDS011;4594;50.994;7.126;2023-07-29T09:36:14;1.43;;;1.33;;
9117;SDS011;4594;50.994;7.126;2023-07-29T09:38:40;1.40;;;1.30;;
9117;SDS011;4594;50.994;7.126;2023-07-29T09:41:06;2.43;;;1.60;;
9117;SDS011;4594;50.994;7.126;2023-07-29T09:43:33;1.40;;;1.30;;
9117;SDS011;4594;50.994;7.126;2023-07-29T09:46:00;2.40;;;2.20;;
9117;SDS011;4594;50.994;7.126;2023-07-29T09:48:28;3.47;;;2.30;;
9117;SDS011;4594;50.994;7.126;2023-07-29T09:50:57;2.97;;;2.67;;
9117;SDS011;4594;50.994;7.126;2023-07-29T09:53:24;3.17;;;2.93;;
9117;SDS011;4594;50.994;7.126;2023-07-29T09:55:50;2.17;;;2.00;;
9117;SDS011;4594;50.994;7.126;2023-07-29T09:58:19;2.10;;;1.97;;
9117;SDS011;4594;50.994;7.126;2023-07-29T10:00:52;1.97;;;1.87;;
9117;SDS011;4594;50.994;7.126;2023-07-29T10:03:21;2.10;;;2.00;;
9117;SDS011;4594;50.994;7.126;2023-07-29T10:05:47;2.10;;;2.07;;
9117;SDS011;4594;50.994;7.126;2023-07-29T10:08:14;2.40;;;2.30;;
9117;SDS011;4594;50.994;7.126;2023-07-29T10:10:41;3.10;;;2.63;;
9117;SDS011;4594;50.994;7.126;2023-07-29T10:13:07;3.37;;;3.10;;
9117;SDS011;4594;50.994;7.126;2023-07-29T10:15:35;11.90;;;7.23;;
9117;SDS011;4594;50.994;7.126;2023-07-29T10:18:01;4.50;;;4.10;;
9117;SDS011;4594;50.994;7.126;2023-07-29T10:20:30;2.93;;;2.53;;
9117;SDS011;4594;50.994;7.126;2023-07-29T10:22:59;2.07;;;2.00;;
9117;SDS011;4594;50.994;7.126;2023-07-29T10:25:29;1.90;;;1.80;;
9117;SDS011;4594;50.994;7.126;2023-07-29T10:28:07;5.53;;;1.60;;
9117;SDS011;4594;50.994;7.126;2023-07-29T10:30:35;1.77;;;1.60;;
9117;SDS011;4594;50.994;7.126;2023-07-29T10:33:02;1.97;;;1.57;;
9117;SDS011;4594;50.994;7.126;2023-07-29T10:35:29;2.33;;;2.13;;
9117;SDS011;4594;50.994;7.126;2023-07-29T10:37:58;2.00;;;1.80;;
9117;SDS011;4594;50.994;7.126;2023-07-29T10:40:26;1.67;;;1.57;;
9117;SDS011;4594;50.994;7.126;2023-07-29T10:43:09;1.80;;;1.70;;
9117;SDS011;4594;50.994;7.126;2023-07-29T10:45:41;2.97;;;1.60;;
9117;SDS011;4594;50.994;7.126;2023-07-29T10:48:11;1.60;;;1.50;;
9117;SDS011;4594;50.994;7.126;2023-07-29T10:50:38;1.70;;;1.60;;
9117;SDS011;4594;50.994;7.126;2023-07-29T10:53:05;2.17;;;2.07;;
9117;SDS011;4594;50.994;7.126;2023-07-29T10:55:35;2.47;;;2.30;;
9117;SDS011;4594;50.994;7.126;2023-07-29T10:58:07;2.23;;;2.13;;
9117;SDS011;4594;50.994;7.126;2023-07-29T11:00:44;2.07;;;1.87;;
9117;SDS011;4594;50.994;7.126;2023-07-29T11:03:11;1.97;;;1.87;;
9117;SDS011;4594;50.994;7.126;2023-07-29T11:05:42;3.17;;;1.70;;
9117;SDS011;4594;50.994;7.126;2023-07-29T11:08:29;14.60;;;2.03;;
9117;SDS011;4594;50.994;7.126;2023-07-29T11:11:05;2.27;;;2.17;;
9117;SDS011;4594;50.994;7.126;2023-07-29T11:13:37;3.07;;;2.87;;
9117;SDS011;4594;50.994;7.126;2023-07-29T11:16:03;5.90;;;2.87;;
9117;SDS011;4594;50.994;7.126;2023-07-29T11:18:31;3.53;;;3.27;;
9117;SDS011;4594;50.994;7.126;2023-07-29T11:21:00;3.63;;;3.33;;
9117;SDS011;4594;50.994;7.126;2023-07-29T11:23:29;2.83;;;2.63;;
9117;SDS011;4594;50.994;7.126;2023-07-29T11:25:56;2.57;;;2.37;;
9117;SDS011;4594;50.994;7.126;2023-07-29T11:28:23;2.57;;;2.37;;
9117;SDS011;4594;50.994;7.126;2023-07-29T11:30:50;2.43;;;2.23;;
9117;SDS011;4594;50.994;7.126;2023-07-29T11:33:19;3.80;;;2.20;;
9117;SDS011;4594;50.994;7.126;2023-07-29T11:35:47;2.17;;;2.03;;
9117;SDS011;4594;50.994;7.126;2023-07-29T11:38:17;2.70;;;2.50;;
9117;SDS011;4594;50.994;7.126;2023-07-29T11:40:54;3.57;;;3.27;;
9117;SDS011;4594;50.994;7.126;2023-07-29T11:43:25;4.10;;;3.70;;
9117;SDS011;4594;50.994;7.126;2023-07-29T11:45:51;3.00;;;2.80;;
9117;SDS011;4594;50.994;7.126;2023-07-29T11:48:18;3.73;;;2.63;;
9117;SDS011;4594;50.994;7.126;2023-07-29T11:50:52;2.13;;;2.00;;
9117;SDS011;4594;50.994;7.126;2023-07-29T11:53:20;1.67;;;1.67;;
9117;SDS011;4594;50.994;7.126;2023-07-29T11:55:49;5.10;;;1.60;;
9117;SDS011;4594;50.994;7.126;2023-07-29T11:58:18;2.73;;;2.63;;
9117;SDS011;4594;50.994;7.126;2023-07-29T12:00:43;3.20;;;2.90;;
9117;SDS011;4594;50.994;7.126;2023-07-29T12:03:09;2.60;;;2.30;;
9117;SDS011;4594;50.994;7.126;2023-07-29T12:05:36;3.37;;;1.90;;
9117;SDS011;4594;50.994;7.126;2023-07-29T12:08:02;1.70;;;1.63;;
9117;SDS011;4594;50.994;7.126;2023-07-29T12:10:28;2.33;;;1.60;;
9117;SDS011;4594;50.994;7.126;2023-07-29T12:12:55;2.87;;;1.70;;
9117;SDS011;4594;50.994;7.126;2023-07-29T12:15:24;2.20;;;2.10;;
9117;SDS011;4594;50.994;7.126;2023-07-29T12:17:54;1.43;;;1.43;;
9117;SDS011;4594;50.994;7.126;2023-07-29T12:20:22;1.80;;;1.70;;
9117;SDS011;4594;50.994;7.126;2023-07-29T12:22:52;1.80;;;1.70;;
9117;SDS011;4594;50.994;7.126;2023-07-29T12:25:22;1.57;;;1.57;;
9117;SDS011;4594;50.994;7.126;2023-07-29T12:27:48;2.00;;;1.90;;
9117;SDS011;4594;50.994;7.126;2023-07-29T12:30:14;4.43;;;3.13;;
9117;SDS011;4594;50.994;7.126;2023-07-29T12:32:44;4.27;;;3.80;;
9117;SDS011;4594;50.994;7.126;2023-07-29T12:35:11;2.80;;;2.70;;
9117;SDS011;4594;50.994;7.126;2023-07-29T12:37:37;2.50;;;2.30;;
9117;SDS011;4594;50.994;7.126;2023-07-29T12:40:07;2.30;;;1.93;;
9117;SDS011;4594;50.994;7.126;2023-07-29T12:42:53;2.50;;;2.30;;
9117;SDS011;4594;50.994;7.126;2023-07-29T12:45:20;2.33;;;2.13;;
9117;SDS011;4594;50.994;7.126;2023-07-29T12:47:51;2.50;;;2.40;;
9117;SDS011;4594;50.994;7.126;2023-07-29T12:50:16;2.43;;;2.23;;
9117;SDS011;4594;50.994;7.126;2023-07-29T12:52:42;2.03;;;1.93;;
9117;SDS011;4594;50.994;7.126;2023-07-29T12:55:08;1.80;;;1.70;;
9117;SDS011;4594;50.994;7.126;2023-07-29T12:57:37;2.17;;;2.07;;
9117;SDS011;4594;50.994;7.126;2023-07-29T13:00:06;2.60;;;2.07;;
9117;SDS011;4594;50.994;7.126;2023-07-29T13:02:34;2.03;;;1.93;;
9117;SDS011;4594;50.994;7.126;2023-07-29T13:04:59;1.80;;;1.70;;
9117;SDS011;4594;50.994;7.126;2023-07-29T13:07:25;3.23;;;3.03;;
9117;SDS011;4594;50.994;7.126;2023-07-29T13:09:50;3.97;;;3.63;;
9117;SDS011;4594;50.994;7.126;2023-07-29T13:12:16;4.73;;;4.30;;
9117;SDS011;4594;50.994;7.126;2023-07-29T13:14:42;3.10;;;2.90;;
9117;SDS011;4594;50.994;7.126;2023-07-29T13:17:07;3.10;;;2.10;;
9117;SDS011;4594;50.994;7.126;2023-07-29T13:19:33;2.47;;;2.23;;
9117;SDS011;4594;50.994;7.126;2023-07-29T13:21:58;2.47;;;2.37;;
9117;SDS011;4594;50.994;7.126;2023-07-29T13:24:24;2.73;;;2.53;;
9117;SDS011;4594;50.994;7.126;2023-07-29T13:26:50;2.17;;;1.97;;
9117;SDS011;4594;50.994;7.126;2023-07-29T13:29:15;4.40;;;2.37;;
9117;SDS011;4594;50.994;7.126;2023-07-29T13:31:41;1.63;;;1.53;;
9117;SDS011;4594;50.994;7.126;2023-07-29T13:34:06;1.57;;;1.57;;
9117;SDS011;4594;50.994;7.126;2023-07-29T13:36:32;1.63;;;1.63;;
9117;SDS011;4594;50.994;7.126;2023-07-29T13:38:58;1.70;;;1.60;;
9117;SDS011;4594;50.994;7.126;2023-07-29T13:41:23;1.40;;;1.40;;
9117;SDS011;4594;50.994;7.126;2023-07-29T13:43:49;1.77;;;1.67;;
9117;SDS011;4594;50.994;7.126;2023-07-29T13:46:15;1.50;;;1.47;;
9117;SDS011;4594;50.994;7.126;2023-07-29T13:48:40;1.57;;;1.53;;
9117;SDS011;4594;50.994;7.126;2023-07-29T13:51:06;1.73;;;1.63;;
9117;SDS011;4594;50.994;7.126;2023-07-29T13:53:31;2.30;;;1.40;;
9117;SDS011;4594;50.994;7.126;2023-07-29T13:55:57;2.67;;;2.47;;
9117;SDS011;4594;50.994;7.126;2023-07-29T13:58:23;5.37;;;4.03;;
9117;SDS011;4594;50.994;7.126;2023-07-29T14:00:48;7.57;;;4.33;;
9117;SDS011;4594;50.994;7.126;2023-07-29T14:03:14;4.97;;;3.73;;
9117;SDS011;4594;50.994;7.126;2023-07-29T14:05:40;3.53;;;3.23;;
9117;SDS011;4594;50.994;7.126;2023-07-29T14:08:05;4.93;;;3.70;;
9117;SDS011;4594;50.994;7.126;2023-07-29T14:10:31;7.20;;;5.87;;
9117;SDS011;4594;50.994;7.126;2023-07-29T14:12:56;7.03;;;5.40;;
9117;SDS011;4594;50.994;7.126;2023-07-29T14:15:22;4.43;;;4.00;;
9117;SDS011;4594;50.994;7.126;2023-07-29T14:17:48;5.57;;;4.40;;
9117;SDS011;4594;50.994;7.126;2023-07-29T14:20:13;4.17;;;3.53;;
9117;SDS011;4594;50.994;7.126;2023-07-29T14:22:39;3.80;;;3.37;;
9117;SDS011;4594;50.994;7.126;2023-07-29T14:25:05;3.13;;;2.87;;
9117;SDS011;4594;50.994;7.126;2023-07-29T14:27:32;9.30;;;6.00;;
9117;SDS011;4594;50.994;7.126;2023-07-29T14:29:58;3.37;;;3.07;;
9117;SDS011;4594;50.994;7.126;2023-07-29T14:32:23;3.30;;;3.00;;
9117;SDS011;4594;50.994;7.126;2023-07-29T14:34:49;5.50;;;4.40;;
9117;SDS011;4594;50.994;7.126;2023-07-29T14:37:15;6.50;;;5.60;;
9117;SDS011;4594;50.994;7.126;2023-07-29T14:39:40;6.97;;;5.30;;
9117;SDS011;4594;50.994;7.126;2023-07-29T14:42:06;7.70;;;4.23;;
9117;SDS011;4594;50.994;7.126;2023-07-29T14:44:33;11.63;;;8.00;;
9117;SDS011;4594;50.994;7.126;2023-07-29T14:46:58;9.07;;;6.60;;
9117;SDS011;4594;50.994;7.126;2023-07-29T14:49:24;4.60;;;4.00;;
9117;SDS011;4594;50.994;7.126;2023-07-29T14:51:50;4.03;;;3.53;;
9117;SDS011;4594;50.994;7.126;2023-07-29T14:54:15;4.90;;;3.20;;
9117;SDS011;4594;50.994;7.126;2023-07-29T14:56:41;3.93;;;2.87;;
9117;SDS011;4594;50.994;7.126;2023-07-29T14:59:07;3.20;;;3.00;;
9117;SDS011;4594;50.994;7.126;2023-07-29T15:01:33;3.23;;;2.57;;
9117;SDS011;4594;50.994;7.126;2023-07-29T15:03:58;2.07;;;1.97;;
9117;SDS011;4594;50.994;7.126;2023-07-29T15:06:24;2.50;;;2.30;;
9117;SDS011;4594;50.994;7.126;2023-07-29T15:08:49;2.03;;;1.93;;
9117;SDS011;4594;50.994;7.126;2023-07-29T15:11:15;4.40;;;1.80;;
9117;SDS011;4594;50.994;7.126;2023-07-29T15:13:41;1.70;;;1.70;;
9117;SDS011;4594;50.994;7.126;2023-07-29T15:16:06;2.10;;;1.60;;
9117;SDS011;4594;50.994;7.126;2023-07-29T15:18:32;1.70;;;1.70;;
9117;SDS011;4594;50.994;7.126;2023-07-29T15:20:59;1.87;;;1.77;;
9117;SDS011;4594;50.994;7.126;2023-07-29T15:23:27;1.87;;;1.77;;